sensor_id;sensor_type;location;lat;lon;timestamp;temperature;humidity
31129;DHT22;17777;48.770;8.944;2023-08-06T00:00:23;22.20;51.00
31129;DHT22;17777;48.770;8.944;2023-08-06T00:02:49;22.10;51.00
31129;DHT22;17777;48.770;8.944;2023-08-06T00:05:15;22.10;51.10
31129;DHT22;17777;48.770;8.944;2023-08-06T00:07:47;22.10;51.10
31129;DHT22;17777;48.770;8.944;2023-08-06T00:10:14;22.10;51.10
31129;DHT22;17777;48.770;8.944;2023-08-06T00:12:39;22.10;51.10
31129;DHT22;17777;48.770;8.944;2023-08-06T00:15:06;22.10;51.10
31129;DHT22;17777;48.770;8.944;2023-08-06T00:17:32;22.00;51.10
31129;DHT22;17777;48.770;8.944;2023-08-06T00:19:59;22.00;51.20
31129;DHT22;17777;48.770;8.944;2023-08-06T00:22:31;22.00;51.10
31129;DHT22;17777;48.770;8.944;2023-08-06T00:25:04;22.00;51.10
31129;DHT22;17777;48.770;8.944;2023-08-06T00:27:30;22.00;51.10
31129;DHT22;17777;48.770;8.944;2023-08-06T00:29:58;22.00;51.10
31129;DHT22;17777;48.770;8.944;2023-08-06T00:32:24;22.00;51.10
31129;DHT22;17777;48.770;8.944;2023-08-06T00:34:50;21.90;51.00
31129;DHT22;17777;48.770;8.944;2023-08-06T00:37:16;21.90;51.00
31129;DHT22;17777;48.770;8.944;2023-08-06T00:39:43;21.90;51.00
31129;DHT22;17777;48.770;8.944;2023-08-06T00:42:10;21.90;51.00
31129;DHT22;17777;48.770;8.944;2023-08-06T00:44:37;21.80;51.00
31129;DHT22;17777;48.770;8.944;2023-08-06T00:47:03;21.80;51.00
31129;DHT22;17777;48.770;8.944;2023-08-06T00:49:29;21.80;51.10
31129;DHT22;17777;48.770;8.944;2023-08-06T00:51:57;21.80;51.10
31129;DHT22;17777;48.770;8.944;2023-08-06T00:54:24;21.70;51.00
31129;DHT22;17777;48.770;8.944;2023-08-06T00:56:50;21.70;51.00
31129;DHT22;17777;48.770;8.944;2023-08-06T00:59:16;21.70;51.00
31129;DHT22;17777;48.770;8.944;2023-08-06T01:01:43;21.60;51.00
31129;DHT22;17777;48.770;8.944;2023-08-06T01:04:10;21.60;51.10
31129;DHT22;17777;48.770;8.944;2023-08-06T01:06:51;21.60;51.20
31129;DHT22;17777;48.770;8.944;2023-08-06T01:09:26;21.50;51.30
31129;DHT22;17777;48.770;8.944;2023-08-06T01:15:18;21.50;50.90
31129;DHT22;17777;48.770;8.944;2023-08-06T01:17:48;21.50;51.40
31129;DHT22;17777;48.770;8.944;2023-08-06T01:20:14;21.50;51.20
31129;DHT22;17777;48.770;8.944;2023-08-06T01:22:40;21.40;51.20
31129;DHT22;17777;48.770;8.944;2023-08-06T01:25:07;21.40;51.30
31129;DHT22;17777;48.770;8.944;2023-08-06T01:27:46;21.40;51.40
31129;DHT22;17777;48.770;8.944;2023-08-06T01:30:30;21.40;51.60
31129;DHT22;17777;48.770;8.944;2023-08-06T01:33:04;21.30;51.40
31129;DHT22;17777;48.770;8.944;2023-08-06T01:35:32;21.30;51.30
31129;DHT22;17777;48.770;8.944;2023-08-06T01:38:00;21.30;51.40
31129;DHT22;17777;48.770;8.944;2023-08-06T01:40:26;21.30;51.40
31129;DHT22;17777;48.770;8.944;2023-08-06T01:42:53;21.30;51.40
31129;DHT22;17777;48.770;8.944;2023-08-06T01:45:19;21.30;51.40
31129;DHT22;17777;48.770;8.944;2023-08-06T01:47:45;21.30;51.40
31129;DHT22;17777;48.770;8.944;2023-08-06T01:50:11;21.30;51.40
31129;DHT22;17777;48.770;8.944;2023-08-06T01:52:36;21.20;51.40
31129;DHT22;17777;48.770;8.944;2023-08-06T01:55:02;21.20;51.30
31129;DHT22;17777;48.770;8.944;2023-08-06T01:57:28;21.20;51.30
31129;DHT22;17777;48.770;8.944;2023-08-06T01:59:54;21.20;51.30
31129;DHT22;17777;48.770;8.944;2023-08-06T02:02:20;21.10;51.30
31129;DHT22;17777;48.770;8.944;2023-08-06T02:04:46;21.10;51.30
31129;DHT22;17777;48.770;8.944;2023-08-06T02:07:12;21.10;51.30
31129;DHT22;17777;48.770;8.944;2023-08-06T02:09:38;21.10;51.40
31129;DHT22;17777;48.770;8.944;2023-08-06T02:12:04;21.10;51.40
31129;DHT22;17777;48.770;8.944;2023-08-06T02:14:30;21.00;51.30
31129;DHT22;17777;48.770;8.944;2023-08-06T02:16:56;21.00;52.00
31129;DHT22;17777;48.770;8.944;2023-08-06T02:19:24;21.00;51.30
31129;DHT22;17777;48.770;8.944;2023-08-06T02:21:50;21.00;51.30
31129;DHT22;17777;48.770;8.944;2023-08-06T02:24:16;21.00;51.30
31129;DHT22;17777;48.770;8.944;2023-08-06T02:26:41;21.00;51.40
31129;DHT22;17777;48.770;8.944;2023-08-06T02:29:07;20.90;51.40
31129;DHT22;17777;48.770;8.944;2023-08-06T02:31:33;20.90;51.40
31129;DHT22;17777;48.770;8.944;2023-08-06T02:33:59;20.90;51.40
31129;DHT22;17777;48.770;8.944;2023-08-06T02:36:25;20.90;51.50
31129;DHT22;17777;48.770;8.944;2023-08-06T02:38:54;20.90;51.50
31129;DHT22;17777;48.770;8.944;2023-08-06T02:41:22;20.90;51.60
31129;DHT22;17777;48.770;8.944;2023-08-06T02:43:47;20.90;51.50
31129;DHT22;17777;48.770;8.944;2023-08-06T02:46:13;20.90;51.60
31129;DHT22;17777;48.770;8.944;2023-08-06T02:48:39;20.80;51.60
31129;DHT22;17777;48.770;8.944;2023-08-06T02:51:06;20.80;51.60
31129;DHT22;17777;48.770;8.944;2023-08-06T02:53:32;20.80;51.60
31129;DHT22;17777;48.770;8.944;2023-08-06T02:56:02;20.80;51.60
31129;DHT22;17777;48.770;8.944;2023-08-06T02:58:37;20.80;51.60
31129;DHT22;17777;48.770;8.944;2023-08-06T03:01:12;20.70;51.60
31129;DHT22;17777;48.770;8.944;2023-08-06T03:03:44;20.80;51.80
31129;DHT22;17777;48.770;8.944;2023-08-06T03:06:17;20.70;51.80
31129;DHT22;17777;48.770;8.944;2023-08-06T03:08:47;20.70;51.80
31129;DHT22;17777;48.770;8.944;2023-08-06T03:11:13;20.70;51.80
31129;DHT22;17777;48.770;8.944;2023-08-06T03:13:40;20.70;51.90
31129;DHT22;17777;48.770;8.944;2023-08-06T03:16:06;20.60;51.90
31129;DHT22;17777;48.770;8.944;2023-08-06T03:18:32;20.60;52.50
31129;DHT22;17777;48.770;8.944;2023-08-06T03:21:01;20.60;52.00
31129;DHT22;17777;48.770;8.944;2023-08-06T03:23:29;20.70;52.10
31129;DHT22;17777;48.770;8.944;2023-08-06T03:25:55;20.60;52.10
31129;DHT22;17777;48.770;8.944;2023-08-06T03:28:22;20.60;52.10
31129;DHT22;17777;48.770;8.944;2023-08-06T03:31:02;20.60;52.20
31129;DHT22;17777;48.770;8.944;2023-08-06T03:33:34;20.60;52.50
31129;DHT22;17777;48.770;8.944;2023-08-06T03:36:03;20.60;52.20
31129;DHT22;17777;48.770;8.944;2023-08-06T03:38:30;20.60;52.20
31129;DHT22;17777;48.770;8.944;2023-08-06T03:40:59;20.60;52.20
31129;DHT22;17777;48.770;8.944;2023-08-06T03:43:24;20.60;52.20
31129;DHT22;17777;48.770;8.944;2023-08-06T03:45:51;20.70;52.30
31129;DHT22;17777;48.770;8.944;2023-08-06T03:48:18;20.60;52.30
31129;DHT22;17777;48.770;8.944;2023-08-06T03:50:43;20.60;52.40
31129;DHT22;17777;48.770;8.944;2023-08-06T03:53:13;20.60;52.50
31129;DHT22;17777;48.770;8.944;2023-08-06T03:55:38;20.60;52.50
31129;DHT22;17777;48.770;8.944;2023-08-06T03:58:04;20.60;52.50
31129;DHT22;17777;48.770;8.944;2023-08-06T04:00:30;20.60;52.50
31129;DHT22;17777;48.770;8.944;2023-08-06T04:02:56;20.60;52.60
31129;DHT22;17777;48.770;8.944;2023-08-06T04:05:22;20.60;52.60
31129;DHT22;17777;48.770;8.944;2023-08-06T04:07:48;20.70;52.70
31129;DHT22;17777;48.770;8.944;2023-08-06T04:10:14;20.70;52.70
31129;DHT22;17777;48.770;8.944;2023-08-06T04:12:39;20.70;52.70
31129;DHT22;17777;48.770;8.944;2023-08-06T04:15:06;20.70;52.70
31129;DHT22;17777;48.770;8.944;2023-08-06T04:17:32;20.70;52.70
31129;DHT22;17777;48.770;8.944;2023-08-06T04:19:58;20.70;52.70
31129;DHT22;17777;48.770;8.944;2023-08-06T04:22:24;20.70;52.70
31129;DHT22;17777;48.770;8.944;2023-08-06T04:24:50;20.70;52.70
31129;DHT22;17777;48.770;8.944;2023-08-06T04:27:17;20.80;52.70
31129;DHT22;17777;48.770;8.944;2023-08-06T04:29:46;20.80;52.70
31129;DHT22;17777;48.770;8.944;2023-08-06T04:32:13;20.80;52.70
31129;DHT22;17777;48.770;8.944;2023-08-06T04:34:44;20.80;52.70
31129;DHT22;17777;48.770;8.944;2023-08-06T04:37:10;20.80;52.70
31129;DHT22;17777;48.770;8.944;2023-08-06T04:39:35;20.80;52.70
31129;DHT22;17777;48.770;8.944;2023-08-06T04:42:01;20.80;52.70
31129;DHT22;17777;48.770;8.944;2023-08-06T04:44:28;20.70;52.60
31129;DHT22;17777;48.770;8.944;2023-08-06T04:46:53;20.70;52.70
31129;DHT22;17777;48.770;8.944;2023-08-06T04:49:20;20.70;52.80
31129;DHT22;17777;48.770;8.944;2023-08-06T04:51:46;20.80;52.80
31129;DHT22;17777;48.770;8.944;2023-08-06T04:54:12;20.70;52.70
31129;DHT22;17777;48.770;8.944;2023-08-06T04:56:38;20.70;52.80
31129;DHT22;17777;48.770;8.944;2023-08-06T04:59:04;20.80;53.00
31129;DHT22;17777;48.770;8.944;2023-08-06T05:01:29;20.80;52.90
31129;DHT22;17777;48.770;8.944;2023-08-06T05:03:55;20.80;53.00
31129;DHT22;17777;48.770;8.944;2023-08-06T05:06:21;20.80;53.10
31129;DHT22;17777;48.770;8.944;2023-08-06T05:08:46;20.80;53.00
31129;DHT22;17777;48.770;8.944;2023-08-06T05:11:12;20.80;53.10
31129;DHT22;17777;48.770;8.944;2023-08-06T05:13:38;20.80;53.00
31129;DHT22;17777;48.770;8.944;2023-08-06T05:16:04;20.80;52.90
31129;DHT22;17777;48.770;8.944;2023-08-06T05:18:29;20.80;53.00
31129;DHT22;17777;48.770;8.944;2023-08-06T05:20:56;20.90;53.10
31129;DHT22;17777;48.770;8.944;2023-08-06T05:23:22;20.80;53.10
31129;DHT22;17777;48.770;8.944;2023-08-06T05:25:48;20.80;53.10
31129;DHT22;17777;48.770;8.944;2023-08-06T05:28:13;20.90;53.20
31129;DHT22;17777;48.770;8.944;2023-08-06T05:30:40;20.90;53.30
31129;DHT22;17777;48.770;8.944;2023-08-06T05:33:06;20.90;53.30
31129;DHT22;17777;48.770;8.944;2023-08-06T05:35:32;20.90;53.30
31129;DHT22;17777;48.770;8.944;2023-08-06T05:37:58;20.90;53.20
31129;DHT22;17777;48.770;8.944;2023-08-06T05:40:23;20.90;53.80
31129;DHT22;17777;48.770;8.944;2023-08-06T05:42:53;20.90;53.10
31129;DHT22;17777;48.770;8.944;2023-08-06T05:45:19;20.90;53.10
31129;DHT22;17777;48.770;8.944;2023-08-06T05:47:45;20.90;53.00
31129;DHT22;17777;48.770;8.944;2023-08-06T05:50:11;20.90;53.00
31129;DHT22;17777;48.770;8.944;2023-08-06T05:52:37;20.90;53.00
31129;DHT22;17777;48.770;8.944;2023-08-06T05:55:03;20.90;53.00
31129;DHT22;17777;48.770;8.944;2023-08-06T05:57:29;20.90;53.00
31129;DHT22;17777;48.770;8.944;2023-08-06T05:59:54;20.90;53.00
31129;DHT22;17777;48.770;8.944;2023-08-06T06:02:20;20.80;53.60
31129;DHT22;17777;48.770;8.944;2023-08-06T06:04:46;20.80;52.90
31129;DHT22;17777;48.770;8.944;2023-08-06T06:07:12;20.80;53.10
31129;DHT22;17777;48.770;8.944;2023-08-06T06:09:37;20.80;53.10
31129;DHT22;17777;48.770;8.944;2023-08-06T06:12:06;20.80;53.10
31129;DHT22;17777;48.770;8.944;2023-08-06T06:14:32;20.70;53.10
31129;DHT22;17777;48.770;8.944;2023-08-06T06:16:58;20.70;53.20
31129;DHT22;17777;48.770;8.944;2023-08-06T06:19:25;20.70;53.30
31129;DHT22;17777;48.770;8.944;2023-08-06T06:21:51;20.70;53.30
31129;DHT22;17777;48.770;8.944;2023-08-06T06:24:17;20.70;53.30
31129;DHT22;17777;48.770;8.944;2023-08-06T06:26:43;20.70;53.30
31129;DHT22;17777;48.770;8.944;2023-08-06T06:29:08;20.70;53.30
31129;DHT22;17777;48.770;8.944;2023-08-06T06:31:34;20.70;53.40
31129;DHT22;17777;48.770;8.944;2023-08-06T06:34:00;20.70;53.40
31129;DHT22;17777;48.770;8.944;2023-08-06T06:36:26;20.70;53.40
31129;DHT22;17777;48.770;8.944;2023-08-06T06:38:52;20.70;53.50
31129;DHT22;17777;48.770;8.944;2023-08-06T06:41:18;20.70;53.40
31129;DHT22;17777;48.770;8.944;2023-08-06T06:43:44;20.70;53.50
31129;DHT22;17777;48.770;8.944;2023-08-06T06:46:10;20.70;53.50
31129;DHT22;17777;48.770;8.944;2023-08-06T06:48:35;20.70;53.40
31129;DHT22;17777;48.770;8.944;2023-08-06T06:51:01;20.70;53.30
31129;DHT22;17777;48.770;8.944;2023-08-06T06:53:28;20.70;53.30
31129;DHT22;17777;48.770;8.944;2023-08-06T06:55:55;20.70;53.30
31129;DHT22;17777;48.770;8.944;2023-08-06T06:58:21;20.70;53.30
31129;DHT22;17777;48.770;8.944;2023-08-06T07:00:47;20.70;53.90
31129;DHT22;17777;48.770;8.944;2023-08-06T07:03:14;20.70;53.40
31129;DHT22;17777;48.770;8.944;2023-08-06T07:05:40;20.70;53.40
31129;DHT22;17777;48.770;8.944;2023-08-06T07:08:07;20.70;53.50
31129;DHT22;17777;48.770;8.944;2023-08-06T07:10:33;20.70;53.60
31129;DHT22;17777;48.770;8.944;2023-08-06T07:12:58;20.60;53.70
31129;DHT22;17777;48.770;8.944;2023-08-06T07:15:24;20.60;53.60
31129;DHT22;17777;48.770;8.944;2023-08-06T07:17:50;20.60;53.60
31129;DHT22;17777;48.770;8.944;2023-08-06T07:20:16;20.60;53.70
31129;DHT22;17777;48.770;8.944;2023-08-06T07:22:41;20.60;53.70
31129;DHT22;17777;48.770;8.944;2023-08-06T07:25:07;20.60;53.70
31129;DHT22;17777;48.770;8.944;2023-08-06T07:27:33;20.60;53.80
31129;DHT22;17777;48.770;8.944;2023-08-06T07:29:59;20.60;53.90
31129;DHT22;17777;48.770;8.944;2023-08-06T07:32:25;20.60;54.00
31129;DHT22;17777;48.770;8.944;2023-08-06T07:34:51;20.60;53.90
31129;DHT22;17777;48.770;8.944;2023-08-06T07:37:22;20.60;53.90
31129;DHT22;17777;48.770;8.944;2023-08-06T07:39:48;20.60;53.90
31129;DHT22;17777;48.770;8.944;2023-08-06T07:42:14;20.60;54.00
31129;DHT22;17777;48.770;8.944;2023-08-06T07:44:40;20.60;54.10
31129;DHT22;17777;48.770;8.944;2023-08-06T07:47:06;20.60;54.00
31129;DHT22;17777;48.770;8.944;2023-08-06T07:49:32;20.60;54.10
31129;DHT22;17777;48.770;8.944;2023-08-06T07:51:58;20.60;54.20
31129;DHT22;17777;48.770;8.944;2023-08-06T07:54:24;20.60;54.20
31129;DHT22;17777;48.770;8.944;2023-08-06T07:56:50;20.60;54.30
31129;DHT22;17777;48.770;8.944;2023-08-06T07:59:15;20.60;54.20
31129;DHT22;17777;48.770;8.944;2023-08-06T08:01:42;20.60;54.20
31129;DHT22;17777;48.770;8.944;2023-08-06T08:04:07;20.60;54.30
31129;DHT22;17777;48.770;8.944;2023-08-06T08:06:34;20.60;54.40
31129;DHT22;17777;48.770;8.944;2023-08-06T08:08:59;20.60;54.40
31129;DHT22;17777;48.770;8.944;2023-08-06T08:11:26;20.60;54.40
31129;DHT22;17777;48.770;8.944;2023-08-06T08:13:51;20.60;54.50
31129;DHT22;17777;48.770;8.944;2023-08-06T08:16:18;20.60;54.50
31129;DHT22;17777;48.770;8.944;2023-08-06T08:18:47;20.60;54.60
31129;DHT22;17777;48.770;8.944;2023-08-06T08:21:12;20.70;54.70
31129;DHT22;17777;48.770;8.944;2023-08-06T08:23:38;20.70;54.70
31129;DHT22;17777;48.770;8.944;2023-08-06T08:26:04;20.70;54.80
31129;DHT22;17777;48.770;8.944;2023-08-06T08:28:30;20.70;54.70
31129;DHT22;17777;48.770;8.944;2023-08-06T08:30:56;20.80;54.70
31129;DHT22;17777;48.770;8.944;2023-08-06T08:33:22;20.80;54.70
31129;DHT22;17777;48.770;8.944;2023-08-06T08:35:47;20.80;54.60
31129;DHT22;17777;48.770;8.944;2023-08-06T08:38:13;20.80;54.60
31129;DHT22;17777;48.770;8.944;2023-08-06T08:40:48;20.80;54.60
31129;DHT22;17777;48.770;8.944;2023-08-06T08:43:17;20.80;54.70
31129;DHT22;17777;48.770;8.944;2023-08-06T08:45:52;20.80;54.50
31129;DHT22;17777;48.770;8.944;2023-08-06T08:48:24;20.80;54.70
31129;DHT22;17777;48.770;8.944;2023-08-06T08:50:51;20.80;54.60
31129;DHT22;17777;48.770;8.944;2023-08-06T08:53:17;20.80;54.60
31129;DHT22;17777;48.770;8.944;2023-08-06T08:55:46;20.80;54.70
31129;DHT22;17777;48.770;8.944;2023-08-06T08:58:13;20.80;54.70
31129;DHT22;17777;48.770;8.944;2023-08-06T09:00:42;20.80;54.70
31129;DHT22;17777;48.770;8.944;2023-08-06T09:03:08;20.80;54.80
31129;DHT22;17777;48.770;8.944;2023-08-06T09:05:34;20.90;54.70
31129;DHT22;17777;48.770;8.944;2023-08-06T09:08:04;20.90;54.80
31129;DHT22;17777;48.770;8.944;2023-08-06T09:10:30;20.90;54.90
31129;DHT22;17777;48.770;8.944;2023-08-06T09:12:57;20.90;54.80
31129;DHT22;17777;48.770;8.944;2023-08-06T09:15:27;20.90;54.80
31129;DHT22;17777;48.770;8.944;2023-08-06T09:17:53;20.90;54.90
31129;DHT22;17777;48.770;8.944;2023-08-06T09:20:20;20.90;54.80
31129;DHT22;17777;48.770;8.944;2023-08-06T09:22:46;20.90;54.80
31129;DHT22;17777;48.770;8.944;2023-08-06T09:25:24;21.00;55.00
31129;DHT22;17777;48.770;8.944;2023-08-06T09:27:51;20.90;55.00
31129;DHT22;17777;48.770;8.944;2023-08-06T09:30:31;21.00;55.00
31129;DHT22;17777;48.770;8.944;2023-08-06T09:32:59;21.00;55.30
31129;DHT22;17777;48.770;8.944;2023-08-06T09:35:27;20.90;54.90
31129;DHT22;17777;48.770;8.944;2023-08-06T09:37:55;20.90;55.60
31129;DHT22;17777;48.770;8.944;2023-08-06T09:40:31;21.00;55.00
31129;DHT22;17777;48.770;8.944;2023-08-06T09:42:58;21.00;55.10
31129;DHT22;17777;48.770;8.944;2023-08-06T09:45:36;21.00;55.00
31129;DHT22;17777;48.770;8.944;2023-08-06T09:48:04;21.00;55.00
31129;DHT22;17777;48.770;8.944;2023-08-06T09:50:33;21.10;54.90
31129;DHT22;17777;48.770;8.944;2023-08-06T09:53:02;21.10;54.80
31129;DHT22;17777;48.770;8.944;2023-08-06T09:55:29;21.10;54.80
31129;DHT22;17777;48.770;8.944;2023-08-06T09:57:55;21.10;54.80
31129;DHT22;17777;48.770;8.944;2023-08-06T10:00:22;21.10;54.70
31129;DHT22;17777;48.770;8.944;2023-08-06T10:02:49;21.10;54.80
31129;DHT22;17777;48.770;8.944;2023-08-06T10:05:17;21.10;54.70
31129;DHT22;17777;48.770;8.944;2023-08-06T10:07:44;21.10;54.80
31129;DHT22;17777;48.770;8.944;2023-08-06T10:10:11;21.00;54.90
31129;DHT22;17777;48.770;8.944;2023-08-06T10:12:50;21.10;54.90
31129;DHT22;17777;48.770;8.944;2023-08-06T10:15:22;21.00;55.10
31129;DHT22;17777;48.770;8.944;2023-08-06T10:17:51;21.10;55.10
31129;DHT22;17777;48.770;8.944;2023-08-06T10:20:19;21.10;54.80
31129;DHT22;17777;48.770;8.944;2023-08-06T10:23:00;21.10;54.80
31129;DHT22;17777;48.770;8.944;2023-08-06T10:25:30;21.10;55.10
31129;DHT22;17777;48.770;8.944;2023-08-06T10:28:00;21.10;55.00
31129;DHT22;17777;48.770;8.944;2023-08-06T10:30:32;21.10;55.00
31129;DHT22;17777;48.770;8.944;2023-08-06T10:33:03;21.00;55.00
31129;DHT22;17777;48.770;8.944;2023-08-06T10:38:08;21.00;55.10
31129;DHT22;17777;48.770;8.944;2023-08-06T10:40:36;21.10;55.30
31129;DHT22;17777;48.770;8.944;2023-08-06T10:43:04;21.10;55.20
31129;DHT22;17777;48.770;8.944;2023-08-06T10:45:36;21.10;55.00
31129;DHT22;17777;48.770;8.944;2023-08-06T10:48:04;21.00;54.90
31129;DHT22;17777;48.770;8.944;2023-08-06T10:50:30;21.00;54.90
31129;DHT22;17777;48.770;8.944;2023-08-06T10:52:57;21.00;54.90
31129;DHT22;17777;48.770;8.944;2023-08-06T10:55:30;21.00;54.90
31129;DHT22;17777;48.770;8.944;2023-08-06T10:57:57;21.00;54.80
31129;DHT22;17777;48.770;8.944;2023-08-06T11:00:23;21.00;54.70
31129;DHT22;17777;48.770;8.944;2023-08-06T11:02:53;20.90;54.50
31129;DHT22;17777;48.770;8.944;2023-08-06T11:05:19;21.00;54.50
31129;DHT22;17777;48.770;8.944;2023-08-06T11:07:45;20.90;54.40
31129;DHT22;17777;48.770;8.944;2023-08-06T11:10:12;20.90;54.50
31129;DHT22;17777;48.770;8.944;2023-08-06T11:12:39;20.90;54.60
31129;DHT22;17777;48.770;8.944;2023-08-06T11:15:05;20.90;54.60
31129;DHT22;17777;48.770;8.944;2023-08-06T11:17:33;20.90;54.40
31129;DHT22;17777;48.770;8.944;2023-08-06T11:20:02;20.80;54.40
31129;DHT22;17777;48.770;8.944;2023-08-06T11:22:29;20.80;54.30
31129;DHT22;17777;48.770;8.944;2023-08-06T11:24:55;20.80;54.00
31129;DHT22;17777;48.770;8.944;2023-08-06T11:27:21;20.70;54.00
31129;DHT22;17777;48.770;8.944;2023-08-06T11:29:47;20.70;54.10
31129;DHT22;17777;48.770;8.944;2023-08-06T11:32:13;20.70;54.00
31129;DHT22;17777;48.770;8.944;2023-08-06T11:34:39;20.70;54.00
31129;DHT22;17777;48.770;8.944;2023-08-06T11:37:06;20.60;53.80
31129;DHT22;17777;48.770;8.944;2023-08-06T11:39:37;20.50;53.70
31129;DHT22;17777;48.770;8.944;2023-08-06T11:42:05;20.50;53.90
31129;DHT22;17777;48.770;8.944;2023-08-06T11:44:33;20.50;54.00
31129;DHT22;17777;48.770;8.944;2023-08-06T11:47:02;20.50;54.00
31129;DHT22;17777;48.770;8.944;2023-08-06T11:49:50;20.50;54.10
31129;DHT22;17777;48.770;8.944;2023-08-06T11:52:17;20.40;54.20
31129;DHT22;17777;48.770;8.944;2023-08-06T11:55:06;20.40;54.00
31129;DHT22;17777;48.770;8.944;2023-08-06T11:57:43;20.40;54.00
31129;DHT22;17777;48.770;8.944;2023-08-06T12:00:11;20.30;54.00
31129;DHT22;17777;48.770;8.944;2023-08-06T12:02:43;20.30;53.90
31129;DHT22;17777;48.770;8.944;2023-08-06T12:05:16;20.30;53.90
31129;DHT22;17777;48.770;8.944;2023-08-06T12:07:47;20.20;53.90
31129;DHT22;17777;48.770;8.944;2023-08-06T12:10:14;20.20;54.00
31129;DHT22;17777;48.770;8.944;2023-08-06T12:12:41;20.20;54.10
31129;DHT22;17777;48.770;8.944;2023-08-06T12:15:08;20.20;54.10
31129;DHT22;17777;48.770;8.944;2023-08-06T12:17:36;20.20;54.10
31129;DHT22;17777;48.770;8.944;2023-08-06T12:20:03;20.20;54.10
31129;DHT22;17777;48.770;8.944;2023-08-06T12:22:30;20.10;54.10
31129;DHT22;17777;48.770;8.944;2023-08-06T12:25:05;20.10;54.20
31129;DHT22;17777;48.770;8.944;2023-08-06T12:27:43;20.10;54.30
31129;DHT22;17777;48.770;8.944;2023-08-06T12:30:11;20.10;54.50
31129;DHT22;17777;48.770;8.944;2023-08-06T12:32:38;20.10;54.50
31129;DHT22;17777;48.770;8.944;2023-08-06T12:35:04;20.10;54.60
31129;DHT22;17777;48.770;8.944;2023-08-06T12:37:33;20.10;54.60
31129;DHT22;17777;48.770;8.944;2023-08-06T12:39:59;20.10;54.50
31129;DHT22;17777;48.770;8.944;2023-08-06T12:42:24;20.20;54.60
31129;DHT22;17777;48.770;8.944;2023-08-06T12:44:51;20.20;54.60
31129;DHT22;17777;48.770;8.944;2023-08-06T12:47:17;20.20;54.60
31129;DHT22;17777;48.770;8.944;2023-08-06T12:49:43;20.30;54.60
31129;DHT22;17777;48.770;8.944;2023-08-06T12:52:09;20.30;54.50
31129;DHT22;17777;48.770;8.944;2023-08-06T12:54:37;20.30;54.30
31129;DHT22;17777;48.770;8.944;2023-08-06T12:57:04;20.30;54.00
31129;DHT22;17777;48.770;8.944;2023-08-06T12:59:30;20.30;53.90
31129;DHT22;17777;48.770;8.944;2023-08-06T13:01:56;20.30;53.80
31129;DHT22;17777;48.770;8.944;2023-08-06T13:04:22;20.30;53.80
31129;DHT22;17777;48.770;8.944;2023-08-06T13:06:48;20.40;54.50
31129;DHT22;17777;48.770;8.944;2023-08-06T13:09:15;20.40;53.90
31129;DHT22;17777;48.770;8.944;2023-08-06T13:11:41;20.40;53.90
31129;DHT22;17777;48.770;8.944;2023-08-06T13:14:09;20.40;53.90
31129;DHT22;17777;48.770;8.944;2023-08-06T13:16:36;20.40;53.90
31129;DHT22;17777;48.770;8.944;2023-08-06T13:19:04;20.40;53.70
31129;DHT22;17777;48.770;8.944;2023-08-06T13:21:35;20.50;53.80
31129;DHT22;17777;48.770;8.944;2023-08-06T13:24:21;20.50;53.60
31129;DHT22;17777;48.770;8.944;2023-08-06T13:26:47;20.50;53.70
31129;DHT22;17777;48.770;8.944;2023-08-06T13:29:13;20.50;53.60
31129;DHT22;17777;48.770;8.944;2023-08-06T13:31:39;20.60;53.30
31129;DHT22;17777;48.770;8.944;2023-08-06T13:34:04;20.50;53.30
31129;DHT22;17777;48.770;8.944;2023-08-06T13:36:30;20.60;53.30
31129;DHT22;17777;48.770;8.944;2023-08-06T13:38:56;20.60;53.20
31129;DHT22;17777;48.770;8.944;2023-08-06T13:41:23;20.60;53.30
31129;DHT22;17777;48.770;8.944;2023-08-06T13:43:49;20.60;53.20
31129;DHT22;17777;48.770;8.944;2023-08-06T13:46:15;20.60;53.20
31129;DHT22;17777;48.770;8.944;2023-08-06T13:48:46;20.70;53.20
31129;DHT22;17777;48.770;8.944;2023-08-06T13:51:12;20.70;53.20
31129;DHT22;17777;48.770;8.944;2023-08-06T13:53:42;20.70;53.10
31129;DHT22;17777;48.770;8.944;2023-08-06T13:56:09;20.70;53.00
31129;DHT22;17777;48.770;8.944;2023-08-06T13:58:35;20.70;52.90
31129;DHT22;17777;48.770;8.944;2023-08-06T14:01:01;20.70;53.00
31129;DHT22;17777;48.770;8.944;2023-08-06T14:03:27;20.80;53.10
31129;DHT22;17777;48.770;8.944;2023-08-06T14:05:53;20.80;53.10
31129;DHT22;17777;48.770;8.944;2023-08-06T14:08:24;20.80;53.10
31129;DHT22;17777;48.770;8.944;2023-08-06T14:10:53;20.80;53.00
31129;DHT22;17777;48.770;8.944;2023-08-06T14:13:19;20.90;52.90
31129;DHT22;17777;48.770;8.944;2023-08-06T14:15:46;20.90;53.00
31129;DHT22;17777;48.770;8.944;2023-08-06T14:18:15;20.90;52.90
31129;DHT22;17777;48.770;8.944;2023-08-06T14:20:41;21.00;53.20
31129;DHT22;17777;48.770;8.944;2023-08-06T14:23:08;21.00;53.20
31129;DHT22;17777;48.770;8.944;2023-08-06T14:25:34;21.10;53.30
31129;DHT22;17777;48.770;8.944;2023-08-06T14:28:00;21.10;52.90
31129;DHT22;17777;48.770;8.944;2023-08-06T14:30:26;21.10;53.00
31129;DHT22;17777;48.770;8.944;2023-08-06T14:32:52;21.20;53.10
31129;DHT22;17777;48.770;8.944;2023-08-06T14:35:18;21.30;53.10
31129;DHT22;17777;48.770;8.944;2023-08-06T14:37:43;21.30;53.00
31129;DHT22;17777;48.770;8.944;2023-08-06T14:40:11;21.30;53.10
31129;DHT22;17777;48.770;8.944;2023-08-06T14:42:37;21.30;53.00
31129;DHT22;17777;48.770;8.944;2023-08-06T14:45:03;21.30;52.90
31129;DHT22;17777;48.770;8.944;2023-08-06T14:47:29;21.20;52.90
31129;DHT22;17777;48.770;8.944;2023-08-06T14:49:55;21.20;52.90
31129;DHT22;17777;48.770;8.944;2023-08-06T14:52:21;21.20;52.90
31129;DHT22;17777;48.770;8.944;2023-08-06T14:54:47;21.10;52.90
31129;DHT22;17777;48.770;8.944;2023-08-06T14:57:13;21.10;52.90
31129;DHT22;17777;48.770;8.944;2023-08-06T14:59:39;21.10;53.10
31129;DHT22;17777;48.770;8.944;2023-08-06T15:02:06;21.00;53.10
31129;DHT22;17777;48.770;8.944;2023-08-06T15:04:32;21.00;53.20
31129;DHT22;17777;48.770;8.944;2023-08-06T15:06:57;21.00;53.40
31129;DHT22;17777;48.770;8.944;2023-08-06T15:09:23;21.00;53.60
31129;DHT22;17777;48.770;8.944;2023-08-06T15:11:49;21.00;53.70
31129;DHT22;17777;48.770;8.944;2023-08-06T15:14:16;21.00;53.80
31129;DHT22;17777;48.770;8.944;2023-08-06T15:16:42;21.10;54.60
31129;DHT22;17777;48.770;8.944;2023-08-06T15:19:07;21.10;53.80
31129;DHT22;17777;48.770;8.944;2023-08-06T15:21:33;21.10;53.60
31129;DHT22;17777;48.770;8.944;2023-08-06T15:23:59;21.20;53.50
31129;DHT22;17777;48.770;8.944;2023-08-06T15:26:25;21.20;53.40
31129;DHT22;17777;48.770;8.944;2023-08-06T15:28:51;21.20;53.10
31129;DHT22;17777;48.770;8.944;2023-08-06T15:31:20;21.30;53.00
31129;DHT22;17777;48.770;8.944;2023-08-06T15:33:47;21.30;53.20
31129;DHT22;17777;48.770;8.944;2023-08-06T15:36:13;21.30;53.30